Time;durP1;ratioP1;P1;durP2;ratioP2;P2;SDS_P1;SDS_P2;PMS_P1;PMS_P2;Temp;Humidity;BMP_temperature;BMP_pressure;BME280_temperature;BME280_humidity;BME280_pressure;Samples;Min_cycle;Max_cycle;Signal;HPM_P1;HPM_P2
2021/12/23 00:01:39;;;;;;;46.17;25.75;;;;;;;-2.74;91.22;100867.94;4842262;29;20050;-86
2021/12/23 00:04:06;;;;;;;46.22;26.02;;;;;;;-2.72;91.95;100874.03;4837325;29;20042;-88
2021/12/23 00:06:33;;;;;;;50.10;26.55;;;;;;;-2.54;92.07;100881.19;4838642;29;20057;-87
2021/12/23 00:09:00;;;;;;;47.13;26.20;;;;;;;-2.67;92.29;100846.44;4843449;29;20566;-88
2021/12/23 00:11:27;;;;;;;49.33;26.55;;;;;;;-2.52;92.08;100836.25;4837265;29;20061;-87
2021/12/23 00:14:03;;;;;;;46.42;25.05;;;;;;;-2.20;91.48;100874.69;4838936;29;20054;-87
2021/12/23 00:19:23;;;;;;;47.28;25.02;;;;;;;-2.23;91.47;100828.00;4837131;29;20060;-87
2021/12/23 00:24:37;;;;;;;47.42;26.05;;;;;;;-2.10;90.12;100819.50;4839231;29;20462;-88
2021/12/23 00:27:04;;;;;;;43.30;24.83;;;;;;;-2.27;89.85;100771.72;4840133;29;20053;-88
2021/12/23 00:29:31;;;;;;;49.08;25.67;;;;;;;-2.03;89.38;100802.25;4847900;29;20914;-87
2021/12/23 00:31:58;;;;;;;44.03;23.77;;;;;;;-1.97;88.58;100797.13;4840858;29;20145;-88
2021/12/23 00:34:26;;;;;;;46.13;25.23;;;;;;;-1.72;87.89;100821.59;4838523;29;20157;-87
2021/12/23 00:36:57;;;;;;;42.55;24.77;;;;;;;-1.84;87.35;100799.84;4841914;29;20057;-88
2021/12/23 00:39:26;;;;;;;41.80;24.73;;;;;;;-1.93;87.29;100783.34;4847287;29;20060;-87
2021/12/23 00:41:54;;;;;;;43.67;24.52;;;;;;;-1.83;87.17;100817.16;4837277;29;20061;-87
2021/12/23 00:44:21;;;;;;;43.40;24.38;;;;;;;-2.07;87.02;100779.72;4838304;29;20053;-87
2021/12/23 00:46:48;;;;;;;44.50;26.27;;;;;;;-1.86;87.47;100817.13;4840856;29;20152;-87
2021/12/23 00:49:14;;;;;;;43.35;24.55;;;;;;;-2.00;87.46;100781.53;4838472;29;20093;-87
2021/12/23 00:51:41;;;;;;;43.00;24.52;;;;;;;-1.84;86.93;100815.44;4835901;29;20092;-87
2021/12/23 00:54:08;;;;;;;46.88;25.17;;;;;;;-2.00;nan;100800.56;4826428;29;20117;-88
2021/12/23 00:56:37;;;;;;;44.60;25.08;;;;;;;-2.04;87.53;100772.81;4828604;29;20062;-88
2021/12/23 00:59:07;;;;;;;44.70;26.02;;;;;;;-1.95;87.34;100774.66;4829022;29;20050;-87
2021/12/23 01:01:35;;;;;;;45.95;24.77;;;;;;;-1.98;87.25;100770.31;4827364;29;20054;-88
2021/12/23 01:04:03;;;;;;;43.47;25.00;;;;;;;-2.03;86.80;100764.19;4821426;29;20115;-87
2021/12/23 01:06:31;;;;;;;43.17;24.75;;;;;;;-1.96;86.64;100781.56;4826136;29;20177;-87
2021/12/23 01:08:57;;;;;;;43.40;24.27;;;;;;;-2.05;86.74;100776.31;4834049;29;20062;-87
2021/12/23 01:11:25;;;;;;;42.45;23.38;;;;;;;-2.12;87.26;100761.50;4831434;29;20115;-88
2021/12/23 01:17:10;;;;;;;44.28;24.65;;;;;;;-2.16;87.55;100777.91;4825444;29;20058;-87
2021/12/23 01:19:38;;;;;;;39.88;23.75;;;;;;;-2.35;87.76;100771.63;4826627;29;20093;-87
2021/12/23 01:22:08;;;;;;;45.80;25.42;;;;;;;-2.35;89.09;100779.41;4820058;29;20111;-87
2021/12/23 01:24:35;;;;;;;45.77;25.23;;;;;;;-2.34;89.34;100786.34;4823046;29;20073;-88
2021/12/23 01:27:02;;;;;;;46.05;25.48;;;;;;;-2.39;89.41;100775.06;4833546;29;20605;-88
2021/12/23 01:29:28;;;;;;;42.67;24.35;;;;;;;-2.28;89.96;100790.75;4828044;29;20124;-87
2021/12/23 01:31:55;;;;;;;45.45;24.88;;;;;;;-2.53;89.49;100751.56;4832826;29;20078;-89
2021/12/23 01:34:22;;;;;;;45.45;25.55;;;;;;;-2.78;89.72;100721.00;4823332;29;20121;-89
2021/12/23 01:36:48;;;;;;;44.67;26.08;;;;;;;-2.45;90.25;100774.97;4829270;29;20140;-88
2021/12/23 01:39:15;;;;;;;49.10;26.80;;;;;;;-2.55;90.50;100755.88;4816793;29;20074;-88
2021/12/23 01:41:42;;;;;;;48.00;26.23;;;;;;;-2.39;90.83;100780.25;4822132;29;20058;-89
2021/12/23 01:44:08;;;;;;;47.25;25.92;;;;;;;-2.51;90.62;100738.59;4828317;29;20050;-90
2021/12/23 01:46:35;;;;;;;47.95;27.02;;;;;;;-2.31;90.50;100751.78;4826979;29;20137;-88
2021/12/23 01:49:03;;;;;;;49.63;26.65;;;;;;;-2.19;89.90;100747.59;4839791;29;20148;-90
2021/12/23 01:51:30;;;;;;;46.28;25.30;;;;;;;-2.26;88.82;100726.78;4826363;29;20056;-90
2021/12/23 01:53:57;;;;;;;53.00;26.85;;;;;;;-2.35;88.05;100716.28;4823613;29;20061;-89
2021/12/23 01:56:24;;;;;;;46.75;25.38;;;;;;;-2.22;87.89;100723.38;4819362;29;20054;-90
2021/12/23 01:58:54;;;;;;;43.30;24.80;;;;;;;-2.11;87.41;100739.91;4835671;29;20054;-89
2021/12/23 02:01:22;;;;;;;40.60;24.13;;;;;;;-2.24;87.91;100733.72;4829162;29;20049;-89
2021/12/23 02:03:49;;;;;;;45.55;24.90;;;;;;;-2.14;87.93;100738.16;4826911;29;20578;-89
2021/12/23 02:06:15;;;;;;;51.15;25.90;;;;;;;-2.28;87.87;100708.59;4826769;29;20494;-89
2021/12/23 02:08:43;;;;;;;46.45;25.73;;;;;;;-2.37;87.85;100707.66;4828942;29;20057;-90
2021/12/23 02:11:11;;;;;;;48.92;26.02;;;;;;;-2.27;87.61;100710.34;4824984;29;20054;-89
2021/12/23 02:13:39;;;;;;;43.28;25.52;;;;;;;-2.15;87.76;100723.44;4832512;29;20049;-90
2021/12/23 02:16:06;;;;;;;46.35;26.10;;;;;;;-2.37;87.26;100680.00;4823295;29;20077;-87
2021/12/23 02:18:36;;;;;;;45.78;25.35;;;;;;;-2.26;87.63;100713.81;4827740;29;20054;-88
2021/12/23 02:21:05;;;;;;;46.58;26.40;;;;;;;-2.41;87.47;100688.59;4830436;29;20054;-89
2021/12/23 02:23:32;;;;;;;49.15;25.70;;;;;;;-2.61;87.61;100641.72;4828296;29;20056;-88
2021/12/23 02:26:02;;;;;;;45.92;26.08;;;;;;;-2.26;87.72;100711.22;4816325;29;20054;-88
2021/12/23 02:28:29;;;;;;;43.92;24.70;;;;;;;-2.52;87.68;100665.13;4822255;29;20086;-87
2021/12/23 02:30:56;;;;;;;46.25;26.38;;;;;;;-2.49;87.30;100665.16;4829414;29;20062;-88
2021/12/23 02:33:25;;;;;;;49.55;26.00;;;;;;;-2.30;87.11;100709.44;4828521;29;20054;-87
2021/12/23 02:36:00;;;;;;;42.60;24.15;;;;;;;-2.50;87.83;100686.75;4826114;29;20522;-88
2021/12/23 02:38:50;;;;;;;46.90;26.38;;;;;;;-2.31;87.76;100707.69;4844131;29;20058;-89
2021/12/23 02:41:17;;;;;;;48.75;26.05;;;;;;;-2.27;88.32;100717.25;4824868;29;20077;-88
2021/12/23 02:43:54;;;;;;;45.03;25.33;;;;;;;-2.49;88.17;100675.53;4823174;29;20058;-88
2021/12/23 02:46:24;;;;;;;44.55;24.55;;;;;;;-2.44;87.75;100685.97;4823575;29;20061;-88
2021/12/23 02:48:52;;;;;;;42.90;24.33;;;;;;;-2.37;87.39;100700.75;4833308;29;20086;-88
2021/12/23 02:51:22;;;;;;;41.33;23.92;;;;;;;-2.67;87.51;100661.50;4831100;29;20065;-88
2021/12/23 02:54:04;;;;;;;46.78;24.88;;;;;;;-2.85;87.86;100638.88;4828582;29;20050;-88
2021/12/23 02:56:39;;;;;;;44.95;25.45;;;;;;;-2.54;87.87;100704.88;4821991;29;20134;-88
2021/12/23 02:59:21;;;;;;;;;;;;;;;;;;;;;
2021/12/23 03:01:50;;;;;;;42.90;24.75;;;;;;;-2.67;89.06;100696.06;4819560;29;20054;-88
2021/12/23 03:04:25;;;;;;;45.97;24.48;;;;;;;-2.98;89.70;100655.09;4825304;29;20050;-88
2021/12/23 03:06:58;;;;;;;45.10;24.38;;;;;;;-2.74;89.71;100702.06;4804856;29;20058;-89
2021/12/23 03:09:26;;;;;;;44.27;24.97;;;;;;;-2.93;90.37;100669.00;4833958;29;20058;-88
2021/12/23 03:11:55;;;;;;;44.45;24.40;;;;;;;-2.99;90.82;100664.59;4824510;29;20053;-90
2021/12/23 03:14:23;;;;;;;;;;;;;;;-2.79;91.01;100693.34;4824133;29;20110;-89
2021/12/23 03:16:53;;;;;;;47.30;25.63;;;;;;;-2.94;91.13;100669.84;4822090;29;19928;-88
2021/12/23 03:19:25;;;;;;;36.83;19.37;;;;;;;-2.85;91.24;100688.13;4823397;29;20054;-89
2021/12/23 03:22:15;;;;;;;50.45;25.98;;;;;;;-3.01;91.47;100652.50;4817815;29;20498;-89
2021/12/23 03:24:42;;;;;;;49.72;26.60;;;;;;;-2.87;92.05;100671.69;4820575;29;20615;-88
2021/12/23 03:27:13;;;;;;;49.58;26.73;;;;;;;-3.00;92.22;100638.72;4824397;29;20065;-88
2021/12/23 03:30:01;;;;;;;;;;;;;;;;;;;;;
2021/12/23 03:32:39;;;;;;;45.05;25.75;;;;;;;-2.64;91.33;100657.22;4827643;29;20078;-88
2021/12/23 03:35:09;;;;;;;51.38;25.77;;;;;;;-2.82;91.18;100625.94;4825474;29;20042;-88
2021/12/23 03:37:40;;;;;;;47.05;25.33;;;;;;;-2.86;91.13;100611.22;4828318;29;20529;-88
2021/12/23 03:40:10;;;;;;;48.72;26.90;;;;;;;-2.73;91.20;100623.44;4832554;29;20064;-88
2021/12/23 03:42:39;;;;;;;45.75;25.17;;;;;;;-2.91;90.96;100584.38;4830423;29;20058;-87
2021/12/23 03:45:12;;;;;;;49.35;26.52;;;;;;;-2.70;90.58;100618.31;4836829;29;20065;-87
2021/12/23 03:47:50;;;;;;;48.25;25.63;;;;;;;-2.81;90.27;100596.56;4838781;29;20058;-88
2021/12/23 03:50:24;;;;;;;48.28;27.17;;;;;;;-2.48;90.51;100647.88;4824644;29;20066;-88
2021/12/23 03:52:55;;;;;;;48.05;26.38;;;;;;;-2.44;89.62;100646.19;4825463;29;20058;-88
2021/12/23 03:55:33;;;;;;;52.10;26.55;;;;;;;-2.73;88.54;100581.13;4826625;29;20054;-88
2021/12/23 03:58:01;;;;;;;50.13;26.05;;;;;;;-2.60;88.48;100601.97;4823198;29;20087;-88
2021/12/23 04:00:31;;;;;;;44.50;25.13;;;;;;;-2.64;87.91;100600.19;4826935;29;20072;-88
2021/12/23 04:03:06;;;;;;;44.55;24.55;;;;;;;-2.79;89.04;100566.34;4808028;29;20110;-88
2021/12/23 04:05:40;;;;;;;49.85;26.55;;;;;;;-2.38;88.68;100628.97;4806538;29;20068;-89
2021/12/23 04:08:12;;;;;;;49.00;25.58;;;;;;;-2.64;88.82;100578.59;4826807;29;20495;-88
2021/12/23 04:10:40;;;;;;;50.42;26.70;;;;;;;-2.51;88.00;100596.88;4830056;29;20141;-88
2021/12/23 04:13:09;;;;;;;45.15;25.05;;;;;;;-2.21;87.03;100623.94;4825268;29;20051;-88
2021/12/23 04:15:38;;;;;;;44.80;24.77;;;;;;;-2.25;87.09;100622.16;4805810;29;20098;-88
2021/12/23 04:18:07;;;;;;;44.03;25.40;;;;;;;-2.42;88.05;100588.31;4827556;29;20050;-88
2021/12/23 04:20:53;;;;;;;44.88;25.75;;;;;;;-2.46;87.44;100573.56;4827074;29;20518;-87
2021/12/23 04:23:25;;;;;;;49.00;25.58;;;;;;;-2.51;87.69;100576.13;4826298;29;20495;-88
2021/12/23 04:25:53;;;;;;;51.22;26.35;;;;;;;-2.33;87.82;100597.88;4823887;29;20635;-87
2021/12/23 04:28:35;;;;;;;;;;;;;;;;;;;;;
2021/12/23 04:31:05;;;;;;;50.17;26.50;;;;;;;-2.67;88.20;100529.31;4835863;29;20054;-88
2021/12/23 04:33:42;;;;;;;50.90;27.23;;;;;;;-2.48;88.15;100562.31;4838778;29;20276;-88
2021/12/23 04:36:14;;;;;;;45.42;25.92;;;;;;;-2.64;87.84;100527.63;4832093;29;20069;-88
2021/12/23 04:38:45;;;;;;;48.17;26.83;;;;;;;-2.34;88.50;100581.44;4834098;29;20177;-88
2021/12/23 04:41:18;;;;;;;48.63;26.75;;;;;;;-2.32;88.44;100571.09;4843546;29;20056;-87
2021/12/23 04:43:47;;;;;;;45.92;26.02;;;;;;;-2.47;88.62;100551.09;4837552;29;20495;-88
2021/12/23 04:46:17;;;;;;;49.13;26.30;;;;;;;-2.55;88.13;100527.72;4821894;29;20058;-88
2021/12/23 04:48:45;;;;;;;50.97;26.87;;;;;;;-2.72;88.58;100497.31;4827291;29;20065;-87
2021/12/23 04:51:15;;;;;;;51.13;26.50;;;;;;;-2.69;88.68;100499.94;4834580;29;20057;-87
2021/12/23 04:53:46;;;;;;;50.88;27.45;;;;;;;-2.45;89.08;100544.19;4832529;29;20054;-87
2021/12/23 04:56:15;;;;;;;48.17;25.35;;;;;;;-2.66;88.22;100502.53;4823635;29;20084;-88
2021/12/23 04:58:48;;;;;;;50.10;27.30;;;;;;;-2.47;88.62;100525.16;4836112;29;20142;-88
2021/12/23 05:01:28;;;;;;;49.83;25.55;;;;;;;-2.58;88.69;100508.66;4828249;29;20153;-88
2021/12/23 05:03:58;;;;;;;38.73;21.67;;;;;;;-2.55;88.99;100517.34;4836269;29;20526;-87
2021/12/23 05:06:26;;;;;;;55.70;27.38;;;;;;;-2.53;89.46;100526.00;4835442;29;20600;-87
2021/12/23 05:08:54;;;;;;;50.00;27.63;;;;;;;-2.35;89.26;100551.19;4836829;29;20062;-88
2021/12/23 05:11:21;;;;;;;51.58;27.35;;;;;;;-2.51;89.30;100529.44;4832320;29;20065;-89
2021/12/23 05:13:48;;;;;;;48.38;26.63;;;;;;;-2.38;89.53;100538.22;4833470;29;20072;-88
2021/12/23 05:16:20;;;;;;;50.97;27.85;;;;;;;-2.48;89.53;100524.28;4836274;29;20065;-87
2021/12/23 05:18:48;;;;;;;50.63;27.52;;;;;;;-2.45;90.28;100520.88;4831162;29;20141;-88
2021/12/23 05:21:15;;;;;;;50.78;27.55;;;;;;;-2.52;90.37;100508.72;4832726;29;20059;-88
2021/12/23 05:23:43;;;;;;;47.35;26.20;;;;;;;-2.27;89.18;100546.94;4832359;29;20061;-87
2021/12/23 05:26:10;;;;;;;53.63;28.98;;;;;;;-2.25;89.87;100546.94;4833059;29;20055;-88
2021/12/23 05:28:38;;;;;;;53.08;27.70;;;;;;;-2.43;89.37;100492.34;4836357;29;20060;-89
2021/12/23 05:31:09;;;;;;;49.22;27.42;;;;;;;-2.22;89.49;100532.28;4809965;29;20046;-89
2021/12/23 05:33:37;;;;;;;49.30;26.20;;;;;;;-2.35;88.12;100495.84;4842608;29;20056;-87
2021/12/23 05:36:04;;;;;;;43.50;25.65;;;;;;;-2.42;88.16;100492.38;4831185;29;20057;-88
2021/12/23 05:38:33;;;;;;;50.30;27.25;;;;;;;-2.33;88.34;100507.97;4838829;29;20161;-88
2021/12/23 05:41:03;;;;;;;46.67;26.13;;;;;;;-2.53;87.81;100468.97;4832784;29;20080;-88
2021/12/23 05:43:30;;;;;;;47.03;26.05;;;;;;;-2.31;88.67;100505.41;4832874;29;20054;-89
2021/12/23 05:46:00;;;;;;;51.72;26.80;;;;;;;-2.23;88.76;100524.50;4826844;29;20153;-88
2021/12/23 05:48:27;;;;;;;49.42;26.05;;;;;;;-2.52;88.05;100467.25;4852624;29;20049;-88
2021/12/23 05:50:54;;;;;;;52.75;27.67;;;;;;;-2.17;88.75;100522.78;4854240;29;20057;-87
2021/12/23 05:53:21;;;;;;;44.08;26.35;;;;;;;-2.35;88.54;100485.47;4845687;29;20057;-88
2021/12/23 05:55:48;;;;;;;43.58;24.42;;;;;;;-2.24;87.70;100497.69;4841985;29;20092;-88
2021/12/23 05:58:15;;;;;;;47.88;25.58;;;;;;;-2.45;87.86;100461.22;4846446;29;20045;-88
2021/12/23 06:00:41;;;;;;;51.15;26.65;;;;;;;-2.30;87.86;100473.41;4841717;29;20057;-88
2021/12/23 06:03:08;;;;;;;48.40;26.40;;;;;;;-2.15;88.22;100499.44;4842434;29;20053;-87
2021/12/23 06:05:35;;;;;;;53.65;28.08;;;;;;;-2.25;87.71;100475.19;4847349;29;20050;-88
2021/12/23 06:08:02;;;;;;;49.47;27.23;;;;;;;-2.34;87.23;100454.38;4847126;29;20141;-88
2021/12/23 06:10:29;;;;;;;51.95;27.08;;;;;;;-2.21;87.89;100463.13;4843577;29;20058;-88
2021/12/23 06:12:55;;;;;;;52.45;27.33;;;;;;;-2.19;87.72;100463.97;4832686;29;20096;-87
2021/12/23 06:15:22;;;;;;;48.70;26.80;;;;;;;-2.09;87.92;100478.75;4849865;29;20042;-89
2021/12/23 06:17:49;;;;;;;52.50;28.83;;;;;;;-2.21;87.81;100438.03;4839803;29;20413;-89
2021/12/23 06:20:15;;;;;;;50.25;27.33;;;;;;;-2.16;87.48;100444.09;4847287;29;20061;-88
2021/12/23 06:22:42;;;;;;;53.75;28.25;;;;;;;-2.05;86.71;100457.16;4845830;29;20054;-88
2021/12/23 06:25:10;;;;;;;52.70;28.25;;;;;;;-2.13;86.92;100438.06;4847957;29;20064;-88
2021/12/23 06:27:37;;;;;;;52.17;27.13;;;;;;;-1.92;85.65;100463.25;4839200;29;20054;-87
2021/12/23 06:30:16;;;;;;;54.83;27.08;;;;;;;-2.10;86.30;100442.41;4845286;29;20066;-87
2021/12/23 06:32:45;;;;;;;51.30;28.10;;;;;;;-2.12;86.09;100438.06;4847759;29;20081;-88
2021/12/23 06:35:13;;;;;;;54.75;27.80;;;;;;;-2.23;85.72;100420.72;4845163;29;20038;-87
2021/12/23 06:37:41;;;;;;;54.80;28.90;;;;;;;-2.09;86.49;100460.56;4841311;29;20157;-87
2021/12/23 06:40:08;;;;;;;53.63;28.15;;;;;;;-2.23;86.96;100451.84;4843426;29;20060;-87
2021/12/23 06:42:35;;;;;;;55.45;28.48;;;;;;;-2.14;87.81;100450.16;4849121;29;20054;-88
2021/12/23 06:45:03;;;;;;;55.00;28.15;;;;;;;-2.25;87.39;100430.22;4844715;29;20053;-88
2021/12/23 06:47:30;;;;;;;52.15;27.02;;;;;;;-2.06;86.77;100450.22;4842296;29;20074;-88
2021/12/23 06:49:57;;;;;;;56.10;28.70;;;;;;;-2.21;86.13;100440.63;4842291;29;20104;-88
2021/12/23 06:52:24;;;;;;;53.35;27.92;;;;;;;-2.08;87.03;100435.50;4842950;29;20141;-88
2021/12/23 06:54:53;;;;;;;52.45;27.67;;;;;;;-2.01;86.22;100455.41;4843929;29;20058;-87
2021/12/23 06:57:21;;;;;;;52.20;27.55;;;;;;;-2.21;87.10;100421.63;4828260;29;20541;-88
2021/12/23 06:59:48;;;;;;;56.47;28.55;;;;;;;-2.15;86.45;100421.63;4849819;29;20054;-88
2021/12/23 07:02:15;;;;;;;55.63;27.23;;;;;;;-2.22;86.69;100405.19;4845669;29;20061;-88
2021/12/23 07:04:43;;;;;;;58.25;27.90;;;;;;;-2.07;85.43;100406.97;4846457;29;20054;-88
2021/12/23 07:07:12;;;;;;;54.55;28.75;;;;;;;-2.32;85.92;100384.34;4838795;29;20525;-88
2021/12/23 07:09:42;;;;;;;53.25;27.90;;;;;;;-2.36;86.50;100375.69;4843306;29;20144;-88
2021/12/23 07:12:11;;;;;;;55.13;28.40;;;;;;;-2.16;86.71;100418.16;4848140;29;20054;-88
2021/12/23 07:14:39;;;;;;;54.67;27.33;;;;;;;-2.14;86.57;100415.56;4843235;29;21109;-86
2021/12/23 07:17:07;;;;;;;52.55;27.95;;;;;;;-2.17;86.87;100410.38;4842295;29;20060;-88
2021/12/23 07:19:35;;;;;;;53.35;27.95;;;;;;;-1.99;87.11;100451.97;4850161;29;20065;-87
2021/12/23 07:22:02;;;;;;;55.60;27.75;;;;;;;-2.03;86.47;100433.78;4859378;29;20038;-88
2021/12/23 07:24:30;;;;;;;51.72;27.67;;;;;;;-2.28;86.12;100397.34;4861558;29;20058;-87
2021/12/23 07:26:57;;;;;;;57.42;27.33;;;;;;;-2.08;86.78;100435.50;4853763;29;20025;-88
2021/12/23 07:29:23;;;;;;;53.53;28.98;;;;;;;-2.01;87.30;100453.69;4861006;29;20042;-87
2021/12/23 07:31:50;;;;;;;54.97;28.77;;;;;;;-2.00;87.31;100470.13;4858706;29;20033;-88
2021/12/23 07:34:17;;;;;;;57.00;29.80;;;;;;;-2.12;87.68;100439.81;4855070;29;20053;-87
2021/12/23 07:36:44;;;;;;;56.35;29.13;;;;;;;-2.08;87.44;100432.91;4851648;29;20061;-88
2021/12/23 07:39:11;;;;;;;55.25;28.45;;;;;;;-2.10;87.86;100421.66;4854137;29;20068;-87
2021/12/23 07:41:57;;;;;;;55.38;27.83;;;;;;;-1.99;87.83;100420.84;4858401;29;20049;-87
2021/12/23 07:44:34;;;;;;;61.63;29.00;;;;;;;-1.94;87.50;100432.09;4854200;29;20057;-87
2021/12/23 07:47:02;;;;;;;58.47;30.05;;;;;;;-2.05;87.81;100400.06;4850817;29;20100;-87
2021/12/23 07:49:29;;;;;;;53.67;29.67;;;;;;;-2.12;87.53;100386.19;4850444;29;20049;-88
2021/12/23 07:51:55;;;;;;;56.35;28.67;;;;;;;-1.88;87.94;100420.84;4846884;29;20065;-87
2021/12/23 07:54:22;;;;;;;55.40;28.38;;;;;;;-1.96;86.38;100397.50;4830345;29;20054;-88
2021/12/23 07:56:49;;;;;;;58.80;29.55;;;;;;;-2.08;87.60;100387.06;4846956;29;20054;-87
2021/12/23 07:59:16;;;;;;;58.85;28.73;;;;;;;-1.91;87.75;100419.16;4856882;29;20083;-88
2021/12/23 08:01:43;;;;;;;59.13;29.48;;;;;;;-1.85;87.72;100400.13;4854627;29;20133;-86
2021/12/23 08:04:10;;;;;;;58.90;30.13;;;;;;;-1.85;87.40;100390.59;4847559;29;20050;-87
2021/12/23 08:06:39;;;;;;;58.50;29.88;;;;;;;-1.99;87.74;100384.50;4846852;29;20056;-88
2021/12/23 08:09:06;;;;;;;56.38;29.55;;;;;;;-1.73;87.10;100412.28;4850515;29;20099;-86
2021/12/23 08:11:33;;;;;;;54.25;28.88;;;;;;;-1.78;87.28;100404.47;4849159;29;20103;-87
2021/12/23 08:14:00;;;;;;;58.08;28.77;;;;;;;-1.83;87.67;100396.66;4846785;29;20057;-87
2021/12/23 08:16:30;;;;;;;58.78;29.80;;;;;;;-1.92;87.52;100386.28;4843180;29;20085;-87
2021/12/23 08:18:57;;;;;;;45.95;22.50;;;;;;;-1.67;86.66;100427.88;4844720;29;20618;-87
2021/12/23 08:21:26;;;;;;;60.17;29.83;;;;;;;-1.70;87.13;100418.34;4845294;29;20081;-87
2021/12/23 08:23:55;;;;;;;60.58;29.25;;;;;;;-1.89;87.33;100388.84;4845791;29;20069;-88
2021/12/23 08:26:27;;;;;;;53.65;28.58;;;;;;;-1.86;86.93;100378.47;4828882;29;20656;-87
2021/12/23 08:28:56;;;;;;;58.55;29.10;;;;;;;-2.07;87.17;100338.66;4842996;29;20145;-87
2021/12/23 08:31:24;;;;;;;59.50;30.75;;;;;;;-2.07;86.38;100342.13;4844208;29;20141;-88
2021/12/23 08:33:51;;;;;;;60.47;31.38;;;;;;;-1.90;86.58;100381.09;4845664;29;20130;-87
2021/12/23 08:36:20;;;;;;;59.63;29.70;;;;;;;-1.74;86.71;100403.63;4848004;29;20081;-87
2021/12/23 08:38:46;;;;;;;57.38;29.33;;;;;;;-1.90;86.57;100373.31;4841195;29;20125;-87
2021/12/23 08:41:13;;;;;;;60.72;29.42;;;;;;;-1.74;86.58;100394.97;4844033;29;20054;-88
2021/12/23 08:43:40;;;;;;;57.75;28.92;;;;;;;-2.04;87.27;100323.94;4842718;29;20604;-90
2021/12/23 08:46:08;;;;;;;57.22;29.13;;;;;;;-1.66;86.13;100367.28;4841743;29;20056;-88
2021/12/23 08:48:37;;;;;;;58.15;30.00;;;;;;;-1.82;86.26;100330.91;4841783;29;20082;-90
2021/12/23 08:51:04;;;;;;;60.47;29.27;;;;;;;-1.75;86.92;100336.13;4841927;29;20053;-89
2021/12/23 08:53:31;;;;;;;62.60;30.27;;;;;;;-1.73;86.77;100331.81;4843884;29;20060;-89
2021/12/23 08:56:02;;;;;;;60.83;29.42;;;;;;;-1.69;86.16;100320.53;4827919;29;20075;-89
2021/12/23 08:58:29;;;;;;;55.08;28.88;;;;;;;-1.68;86.05;100332.66;4840913;29;20058;-90
2021/12/23 09:00:56;;;;;;;58.45;29.75;;;;;;;-1.59;85.09;100332.69;4839911;29;20497;-88
2021/12/23 09:03:23;;;;;;;56.10;29.10;;;;;;;-1.47;85.27;100359.53;4842104;29;20106;-88
2021/12/23 09:05:50;;;;;;;59.08;30.27;;;;;;;-1.47;85.01;100369.06;4843402;29;20104;-88
2021/12/23 09:08:17;;;;;;;60.15;29.83;;;;;;;-1.93;85.54;100298.91;4836836;29;20060;-88
2021/12/23 09:10:44;;;;;;;60.05;31.65;;;;;;;-1.95;85.93;100300.63;4843637;29;20149;-87
2021/12/23 09:13:10;;;;;;;58.22;28.85;;;;;;;-1.39;85.60;100388.09;4842141;29;20058;-88
2021/12/23 09:15:37;;;;;;;60.55;31.02;;;;;;;-1.63;85.61;100336.16;4841331;29;20138;-87
2021/12/23 09:18:04;;;;;;;62.58;29.60;;;;;;;-1.63;86.04;100346.53;4839848;29;20054;-88
2021/12/23 09:20:31;;;;;;;59.72;29.55;;;;;;;-1.50;85.69;100356.06;4842456;29;20057;-87
2021/12/23 09:23:01;;;;;;;59.72;30.35;;;;;;;-1.55;84.99;100361.25;4847903;29;20054;-87
2021/12/23 09:25:32;;;;;;;61.47;30.50;;;;;;;-1.60;85.45;100343.94;4844299;29;20074;-88
2021/12/23 09:28:56;;;;;;;62.67;30.45;;;;;;;-1.42;85.53;100383.75;4835659;29;20152;-88
2021/12/23 09:33:46;;;;;;;60.63;29.48;;;;;;;-1.42;85.87;100355.19;4843550;29;20057;-88
2021/12/23 09:36:13;;;;;;;66.47;30.38;;;;;;;-1.53;85.32;100349.13;4842017;29;20077;-87
2021/12/23 09:38:41;;;;;;;61.25;30.50;;;;;;;-1.81;85.32;100300.63;4838273;29;20053;-88
2021/12/23 09:41:10;;;;;;;64.70;31.17;;;;;;;-1.58;85.49;100337.91;4839500;29;20053;-88
2021/12/23 09:43:39;;;;;;;61.43;30.83;;;;;;;-1.54;85.28;100338.75;4839438;29;20050;-88
2021/12/23 09:46:11;;;;;;;60.22;30.02;;;;;;;-1.45;85.83;100346.56;4837672;29;20428;-89
2021/12/23 09:48:42;;;;;;;60.35;30.05;;;;;;;-1.53;85.42;100345.66;4837328;29;20062;-88
2021/12/23 09:51:12;;;;;;;62.42;30.00;;;;;;;-1.49;85.85;100345.69;4844305;29;20046;-88
2021/12/23 09:53:42;;;;;;;57.80;30.27;;;;;;;-1.46;86.31;100343.09;4847060;29;20056;-89
2021/12/23 09:56:10;;;;;;;;;;;;;;;-1.38;86.17;100340.47;4852047;29;20054;-88
2021/12/23 09:58:37;;;;;;;64.85;29.85;;;;;;;-1.54;86.19;100315.38;4838861;29;20019;-88
2021/12/23 10:01:06;;;;;;;57.40;29.10;;;;;;;-1.39;85.41;100324.91;4844678;29;20461;-88
2021/12/23 10:03:34;;;;;;;62.35;29.52;;;;;;;-1.42;85.84;100313.63;4839469;29;20161;-89
2021/12/23 10:06:02;;;;;;;57.78;29.08;;;;;;;-1.58;85.46;100277.31;4840393;29;20045;-88
2021/12/23 10:08:29;;;;;;;58.47;29.52;;;;;;;-1.18;85.83;100338.75;4836056;29;20086;-88
2021/12/23 10:11:04;;;;;;;60.28;29.92;;;;;;;-1.23;85.72;100327.50;4826571;29;20117;-89
2021/12/23 10:38:33;;;;;;;63.85;30.63;;;;;;;-0.93;85.22;100303.19;4840113;29;20544;-87
2021/12/23 10:41:06;;;;;;;62.58;30.73;;;;;;;-0.93;84.89;100285.00;4841129;29;20140;-87
2021/12/23 10:43:57;;;;;;;64.90;31.33;;;;;;;-1.03;84.84;100259.06;4846750;29;20088;-88
2021/12/23 10:46:35;;;;;;;;;;;;;;;-0.89;84.63;100278.06;4840862;29;20077;-88
2021/12/23 10:49:39;;;;;;;60.28;30.15;;;;;;;-1.11;84.82;100228.78;4807931;29;19924;-87
2021/12/23 10:52:14;;;;;;;62.20;31.17;;;;;;;-0.80;84.73;100263.34;4822601;29;20057;-88
2021/12/23 11:00:30;;;;;;;65.63;31.40;;;;;;;-0.65;84.01;100245.94;4932626;23;20061;-88
2021/12/23 11:03:36;;;;;;;63.42;30.77;;;;;;;-0.54;83.53;100246.75;4862948;29;20536;-88
2021/12/23 11:06:14;;;;;;;62.50;31.35;;;;;;;-0.52;83.49;100247.63;4854214;29;20049;-87
2021/12/23 11:09:10;;;;;;;64.47;30.75;;;;;;;-0.64;83.85;100222.53;4853597;29;20132;-87
2021/12/23 11:12:10;;;;;;;57.13;29.20;;;;;;;-0.80;83.34;100174.06;4861093;29;20049;-88
2021/12/23 11:42:01;;;;;;;64.05;31.10;;;;;;;-0.27;83.23;100178.09;4870940;29;20140;-89
2021/12/23 11:44:31;;;;;;;64.63;31.40;;;;;;;-0.58;83.07;100125.41;4853093;29;20053;-87
2021/12/23 11:47:03;;;;;;;60.75;31.20;;;;;;;-0.54;81.89;100129.72;4863767;29;20057;-88
2021/12/23 11:49:31;;;;;;;64.68;32.10;;;;;;;-0.53;83.24;100160.94;4881950;29;20060;-89
2021/12/23 11:51:58;;;;;;;61.83;31.60;;;;;;;-0.49;83.98;100173.03;4871767;29;20064;-89
2021/12/23 11:54:34;;;;;;;60.38;31.80;;;;;;;-0.38;83.17;100180.78;4872532;29;20046;-90
2021/12/23 11:57:20;;;;;;;60.33;31.00;;;;;;;-0.32;83.63;100198.97;4870385;29;20049;-89
2021/12/23 12:00:13;;;;;;;65.30;32.30;;;;;;;-0.25;84.23;100202.38;4858097;29;20102;-90
2021/12/23 12:02:40;;;;;;;63.88;32.90;;;;;;;-0.20;84.28;100200.63;4859531;29;20561;-89
2021/12/23 12:05:14;;;;;;;65.90;32.17;;;;;;;-0.34;83.34;100166.03;4857065;29;20049;-88
2021/12/23 12:07:42;;;;;;;59.15;29.77;;;;;;;-0.19;83.75;100191.94;4855279;29;20052;-89
2021/12/23 12:10:17;;;;;;;68.05;32.70;;;;;;;-0.12;84.32;100188.41;4858421;29;20438;-89
2021/12/23 12:13:03;;;;;;;62.05;31.50;;;;;;;-0.12;83.77;100171.03;4858589;29;20470;-89
2021/12/23 12:15:37;;;;;;;59.90;30.40;;;;;;;-0.07;83.83;100176.22;4860814;29;20543;-89
2021/12/23 12:18:13;;;;;;;62.93;32.17;;;;;;;-0.37;83.47;100126.13;4858401;29;20109;-88
2021/12/23 12:20:52;;;;;;;61.47;30.90;;;;;;;-0.27;83.86;100126.06;4867708;29;20490;-88
2021/12/23 12:23:20;;;;;;;58.60;30.75;;;;;;;-0.01;83.71;100157.97;4855237;29;20057;-88
2021/12/23 12:25:53;;;;;;;62.85;32.17;;;;;;;0.05;83.82;100172.66;4868904;29;20114;-87
2021/12/23 12:28:27;;;;;;;59.83;31.40;;;;;;;0.11;83.62;100162.22;4889621;29;20080;-88
2021/12/23 12:31:00;;;;;;;59.88;31.02;;;;;;;-0.19;83.19;100114.72;4877798;29;20045;-87
2021/12/23 12:33:27;;;;;;;61.28;31.33;;;;;;;0.15;83.65;100151.75;4878422;29;20072;-89
2021/12/23 12:35:57;;;;;;;62.97;32.00;;;;;;;0.19;83.22;100156.03;4878932;29;20109;-90
2021/12/23 12:38:26;;;;;;;64.10;32.35;;;;;;;0.02;82.87;100136.22;4879309;29;20048;-89